createdAt,value
2022-10-09T00:00:05.528Z,10.00
2022-10-09T00:02:32.273Z,10.20
2022-10-09T00:04:59.714Z,10.10
2022-10-09T00:07:26.460Z,10.00
2022-10-09T00:09:53.092Z,10.10
2022-10-09T00:12:20.028Z,9.60
2022-10-09T00:14:47.057Z,9.60
2022-10-09T00:17:13.836Z,10.00
2022-10-09T00:19:40.759Z,10.00
2022-10-09T00:22:08.288Z,10.10
2022-10-09T00:24:35.003Z,10.00
2022-10-09T00:27:01.708Z,10.00
2022-10-09T00:29:28.443Z,9.80
2022-10-09T00:31:55.147Z,9.40
2022-10-09T00:34:22.095Z,9.80
2022-10-09T00:36:48.879Z,9.50
2022-10-09T00:39:16.287Z,10.20
2022-10-09T00:41:43.224Z,9.90
2022-10-09T00:44:59.244Z,9.90
2022-10-09T00:47:32.341Z,9.80
2022-10-09T00:50:03.858Z,9.80
2022-10-09T00:52:32.431Z,9.70
2022-10-09T00:55:01.582Z,9.70
2022-10-09T00:57:28.501Z,9.70
2022-10-09T00:59:55.120Z,9.70
2022-10-09T01:02:21.788Z,9.70
2022-10-09T01:04:48.502Z,9.60
2022-10-09T01:07:27.514Z,9.60
2022-10-09T01:09:58.535Z,9.60
2022-10-09T01:12:35.869Z,9.80
2022-10-09T01:15:11.228Z,9.70
2022-10-09T01:17:43.923Z,9.70
2022-10-09T01:20:40.976Z,9.60
2022-10-09T01:23:44.698Z,9.60
2022-10-09T01:26:24.811Z,10.50
2022-10-09T01:28:55.407Z,9.60
2022-10-09T01:31:24.745Z,9.50
2022-10-09T01:33:51.944Z,9.50
2022-10-09T01:36:20.404Z,9.50
2022-10-09T01:38:48.252Z,9.50
2022-10-09T01:41:15.361Z,9.80
2022-10-09T01:43:42.108Z,9.30
2022-10-09T01:46:21.328Z,9.60
2022-10-09T01:48:55.117Z,9.50
2022-10-09T01:51:27.008Z,9.40
2022-10-09T01:53:57.545Z,9.40
2022-10-09T01:56:26.663Z,9.40
2022-10-09T01:58:56.279Z,9.40
2022-10-09T02:01:29.939Z,9.40
2022-10-09T02:03:59.628Z,9.60
2022-10-09T02:06:27.962Z,9.40
2022-10-09T02:08:55.569Z,9.40
2022-10-09T02:11:25.838Z,9.40
2022-10-09T02:13:54.556Z,9.30
2022-10-09T02:16:30.627Z,9.40
2022-10-09T02:19:03.480Z,9.30
2022-10-09T02:21:38.182Z,9.40
2022-10-09T02:24:07.221Z,9.30
2022-10-09T02:26:33.931Z,9.40
2022-10-09T02:29:00.935Z,9.40
2022-10-09T02:31:30.035Z,9.60
2022-10-09T02:33:57.423Z,9.40
2022-10-09T02:36:24.437Z,9.40
2022-10-09T02:38:51.130Z,9.40
2022-10-09T02:41:18.078Z,9.40
2022-10-09T02:43:44.715Z,9.40
2022-10-09T02:46:11.578Z,9.30
2022-10-09T02:48:39.074Z,9.30
2022-10-09T02:51:06.131Z,9.30
2022-10-09T02:53:32.875Z,9.30
2022-10-09T02:55:59.694Z,9.20
2022-10-09T02:58:26.598Z,9.20
2022-10-09T03:00:53.902Z,9.10
2022-10-09T03:03:21.138Z,9.10
2022-10-09T03:05:48.768Z,8.70
2022-10-09T03:08:15.543Z,9.00
2022-10-09T03:10:42.247Z,9.00
2022-10-09T03:13:09.471Z,9.00
2022-10-09T03:15:36.690Z,8.90
2022-10-09T03:18:03.599Z,8.90
2022-10-09T03:20:30.516Z,9.00
2022-10-09T03:22:57.921Z,8.90
2022-10-09T03:25:24.831Z,9.10
2022-10-09T03:27:51.706Z,7.70
2022-10-09T03:30:18.463Z,9.00
2022-10-09T03:32:45.276Z,8.90
2022-10-09T03:35:12.159Z,8.90
2022-10-09T03:37:38.802Z,9.00
2022-10-09T03:40:07.179Z,8.90
2022-10-09T03:42:34.007Z,9.00
2022-10-09T03:45:03.755Z,8.90
2022-10-09T03:47:30.462Z,9.20
2022-10-09T03:49:59.985Z,8.90
2022-10-09T03:52:26.746Z,8.90
2022-10-09T03:54:53.612Z,9.00
2022-10-09T03:57:21.173Z,8.90
2022-10-09T03:59:47.889Z,8.90
2022-10-09T04:02:14.605Z,8.80
2022-10-09T04:04:41.269Z,8.60
2022-10-09T04:07:08.018Z,7.60
2022-10-09T04:09:34.647Z,8.80
2022-10-09T04:12:01.288Z,9.10
2022-10-09T04:14:28.641Z,8.80
2022-10-09T04:16:55.428Z,8.70
2022-10-09T04:19:22.139Z,8.80
2022-10-09T04:21:48.758Z,8.70
2022-10-09T04:24:15.541Z,8.90
2022-10-09T04:26:42.410Z,8.70
2022-10-09T04:29:09.115Z,8.60
2022-10-09T04:31:36.564Z,8.40
2022-10-09T04:34:03.405Z,8.50
2022-10-09T04:36:30.101Z,8.50
2022-10-09T04:38:56.937Z,8.50
2022-10-09T04:41:23.646Z,8.50
2022-10-09T04:43:55.036Z,8.50
2022-10-09T04:46:22.169Z,8.60
2022-10-09T04:48:50.224Z,8.50
2022-10-09T04:51:17.994Z,8.50
2022-10-09T04:53:45.346Z,8.40
2022-10-09T04:56:13.778Z,8.40
2022-10-09T04:58:41.172Z,8.40
2022-10-09T05:01:09.074Z,8.40
2022-10-09T05:03:36.397Z,8.40
2022-10-09T05:06:05.773Z,8.30
2022-10-09T05:08:32.683Z,8.30
2022-10-09T05:11:03.006Z,8.20
2022-10-09T05:13:30.545Z,8.20
2022-10-09T05:16:00.679Z,8.20
2022-10-09T05:18:27.967Z,8.30
2022-10-09T05:20:54.562Z,8.20
2022-10-09T05:23:22.410Z,8.30
2022-10-09T05:25:54.805Z,8.30
2022-10-09T05:28:21.742Z,8.30
2022-10-09T05:30:48.394Z,8.30
2022-10-09T05:33:14.991Z,8.30
2022-10-09T05:35:49.272Z,8.30
2022-10-09T05:38:16.308Z,8.30
2022-10-09T05:40:51.727Z,8.20
2022-10-09T05:43:18.662Z,8.40
2022-10-09T05:45:45.442Z,8.10
2022-10-09T05:48:12.120Z,8.30
2022-10-09T05:50:38.755Z,8.30
2022-10-09T05:53:05.486Z,8.30
2022-10-09T05:55:32.480Z,8.30
2022-10-09T05:57:59.765Z,8.40
2022-10-09T06:00:26.377Z,8.20
2022-10-09T06:02:53.485Z,8.40
2022-10-09T06:05:20.337Z,8.50
2022-10-09T06:07:47.488Z,8.50
2022-10-09T06:10:14.484Z,8.50
2022-10-09T06:12:41.059Z,8.60
2022-10-09T06:15:09.232Z,8.60
2022-10-09T06:17:35.881Z,8.70
2022-10-09T06:20:02.589Z,8.80
2022-10-09T06:22:29.118Z,8.70
2022-10-09T06:24:55.689Z,8.80
2022-10-09T06:27:22.214Z,8.80
2022-10-09T06:29:48.788Z,8.80
2022-10-09T06:32:16.015Z,8.80
2022-10-09T06:34:42.596Z,8.90
2022-10-09T06:37:09.677Z,8.90
2022-10-09T06:39:36.307Z,8.90
2022-10-09T06:42:03.495Z,8.90
2022-10-09T06:44:30.465Z,9.00
2022-10-09T06:46:57.033Z,8.80
2022-10-09T06:49:24.601Z,8.90
2022-10-09T06:51:51.168Z,9.10
2022-10-09T06:54:17.885Z,9.30
2022-10-09T06:56:44.745Z,9.30
2022-10-09T06:59:12.216Z,9.40
2022-10-09T07:01:39.071Z,9.60
2022-10-09T07:04:08.766Z,9.50
2022-10-09T07:06:39.138Z,9.50
2022-10-09T07:09:07.527Z,9.60
2022-10-09T07:11:35.636Z,9.70
2022-10-09T07:14:04.395Z,10.00
2022-10-09T07:16:32.842Z,10.10
2022-10-09T07:19:00.564Z,10.00
2022-10-09T07:21:27.360Z,10.30
2022-10-09T07:23:54.590Z,10.50
2022-10-09T07:26:23.539Z,10.40
2022-10-09T07:28:50.996Z,10.70
2022-10-09T07:31:17.873Z,11.10
2022-10-09T07:33:46.891Z,11.10
2022-10-09T07:36:13.757Z,11.30
2022-10-09T07:38:40.351Z,11.20
2022-10-09T07:41:10.450Z,11.00
2022-10-09T07:43:38.573Z,10.80
2022-10-09T07:46:07.469Z,10.90
2022-10-09T07:48:35.115Z,10.90
2022-10-09T07:51:08.711Z,11.10
2022-10-09T07:53:36.165Z,11.10
2022-10-09T07:56:03.990Z,11.30
2022-10-09T07:58:31.891Z,11.40
2022-10-09T08:01:03.936Z,11.50
2022-10-09T08:03:30.631Z,11.40
2022-10-09T08:05:57.763Z,11.50
2022-10-09T08:08:24.569Z,11.70
2022-10-09T08:10:51.155Z,11.90
2022-10-09T08:13:17.694Z,12.00
2022-10-09T08:15:45.408Z,12.00
2022-10-09T08:18:12.081Z,12.00
2022-10-09T08:20:38.777Z,11.80
2022-10-09T08:23:05.582Z,11.90
2022-10-09T08:25:34.314Z,11.90
2022-10-09T08:28:00.970Z,12.00
2022-10-09T08:30:27.573Z,12.00
2022-10-09T08:32:54.954Z,12.20
2022-10-09T08:35:21.557Z,12.20
2022-10-09T08:37:48.302Z,12.40
2022-10-09T08:40:17.583Z,12.60
2022-10-09T08:42:52.379Z,12.80
2022-10-09T08:45:19.649Z,13.00
2022-10-09T08:47:49.535Z,12.70
2022-10-09T08:50:22.425Z,12.70
2022-10-09T08:52:54.806Z,12.80
2022-10-09T08:55:25.489Z,12.90
2022-10-09T08:57:54.075Z,13.40
2022-10-09T09:00:22.900Z,13.20
2022-10-09T09:03:31.727Z,13.00
2022-10-09T09:06:07.440Z,13.40
2022-10-09T09:08:44.710Z,13.50
2022-10-09T09:11:21.621Z,13.80
2022-10-09T09:14:02.798Z,13.80
2022-10-09T09:16:39.402Z,13.80
2022-10-09T09:19:41.646Z,13.90
2022-10-09T09:22:13.454Z,14.20
2022-10-09T09:24:44.619Z,14.30
2022-10-09T09:27:13.729Z,14.60
2022-10-09T09:29:46.357Z,14.80
2022-10-09T09:32:19.292Z,14.90
2022-10-09T09:34:47.105Z,14.90
2022-10-09T09:37:14.910Z,14.70
2022-10-09T09:40:34.360Z,14.70
2022-10-09T09:42:28.866Z,14.90
2022-10-09T09:44:58.960Z,15.10
2022-10-09T09:47:32.767Z,15.10
2022-10-09T09:50:01.082Z,15.10
2022-10-09T09:52:33.648Z,15.20
2022-10-09T09:55:00.319Z,15.40
2022-10-09T09:57:31.247Z,15.10
2022-10-09T10:00:18.558Z,14.80
2022-10-09T10:02:45.381Z,14.90
2022-10-09T10:05:26.858Z,15.00
2022-10-09T10:07:56.811Z,15.20
2022-10-09T10:10:26.078Z,14.90
2022-10-09T10:12:55.067Z,15.00
2022-10-09T10:15:24.876Z,15.00
2022-10-09T10:18:00.974Z,15.10
2022-10-09T10:20:29.423Z,15.20
2022-10-09T10:22:58.555Z,15.10
2022-10-09T10:25:30.910Z,15.20
2022-10-09T10:28:04.558Z,15.30
2022-10-09T10:30:32.696Z,15.50
2022-10-09T10:33:03.800Z,15.60
2022-10-09T10:35:33.526Z,15.90
2022-10-09T10:38:06.457Z,16.00
2022-10-09T10:40:35.817Z,16.10
2022-10-09T10:43:13.555Z,16.20
2022-10-09T10:45:48.977Z,15.90
2022-10-09T10:48:21.581Z,15.90
2022-10-09T10:50:58.573Z,16.00
2022-10-09T10:53:38.907Z,15.90
2022-10-09T10:56:11.588Z,16.00
2022-10-09T10:58:45.406Z,16.20
2022-10-09T11:01:28.666Z,16.30
2022-10-09T11:04:28.596Z,16.20
2022-10-09T11:07:03.215Z,15.80
2022-10-09T11:09:37.407Z,15.60
2022-10-09T11:12:19.669Z,15.50
2022-10-09T11:15:05.346Z,15.50
2022-10-09T11:17:37.750Z,15.90
2022-10-09T11:20:25.405Z,16.00
2022-10-09T11:23:06.836Z,15.80
2022-10-09T11:25:42.083Z,15.70
2022-10-09T11:28:14.472Z,15.80
2022-10-09T11:30:44.746Z,15.90
2022-10-09T11:33:25.644Z,16.20
2022-10-09T11:35:58.312Z,16.40
2022-10-09T11:38:31.579Z,16.70
2022-10-09T11:41:05.047Z,16.80
2022-10-09T11:43:51.194Z,16.90
2022-10-09T11:46:25.784Z,17.00
2022-10-09T11:48:59.306Z,16.90
2022-10-09T11:51:33.279Z,16.90
2022-10-09T11:54:00.572Z,17.50
2022-10-09T11:56:29.374Z,17.40
2022-10-09T11:58:57.284Z,17.40
2022-10-09T12:01:28.726Z,17.00
2022-10-09T12:04:07.471Z,16.70
2022-10-09T12:06:46.182Z,16.70
2022-10-09T12:09:21.956Z,17.20
2022-10-09T12:12:00.722Z,17.40
2022-10-09T12:14:29.721Z,17.60
2022-10-09T12:16:57.186Z,17.80
2022-10-09T12:19:29.287Z,17.90
2022-10-09T12:22:02.939Z,18.00
2022-10-09T12:24:36.470Z,18.20
2022-10-09T12:27:05.267Z,18.40
2022-10-09T12:29:39.160Z,19.10
2022-10-09T12:32:25.677Z,24.40
2022-10-09T12:34:53.599Z,28.90
2022-10-09T12:37:22.559Z,31.10
2022-10-09T12:39:50.159Z,31.30
2022-10-09T12:42:21.396Z,31.00
2022-10-09T12:44:50.296Z,31.90
2022-10-09T12:47:22.171Z,27.50
2022-10-09T12:49:59.629Z,24.30
2022-10-09T12:52:26.586Z,21.40
2022-10-09T12:54:53.328Z,20.80
2022-10-09T12:57:25.270Z,24.40
2022-10-09T12:59:54.808Z,26.40
2022-10-09T13:02:22.075Z,30.00
2022-10-09T13:04:57.587Z,31.30
2022-10-09T13:07:29.231Z,33.30
2022-10-09T13:10:08.579Z,34.20
2022-10-09T13:12:37.645Z,33.80
2022-10-09T13:15:08.889Z,33.40
2022-10-09T13:17:37.256Z,30.20
2022-10-09T13:20:23.486Z,25.70
2022-10-09T13:22:57.045Z,23.30
2022-10-09T13:25:26.841Z,21.30
2022-10-09T13:27:54.493Z,24.40
2022-10-09T13:30:21.122Z,29.10
2022-10-09T13:32:48.043Z,31.30
2022-10-09T13:35:15.402Z,32.60
2022-10-09T13:37:42.118Z,33.40
2022-10-09T13:40:13.097Z,31.70
2022-10-09T13:42:40.152Z,27.40
2022-10-09T13:45:10.067Z,24.40
2022-10-09T13:47:36.767Z,22.50
2022-10-09T13:50:04.283Z,21.10
2022-10-09T13:52:31.024Z,22.70
2022-10-09T13:54:57.955Z,26.80
2022-10-09T13:57:24.580Z,30.10
2022-10-09T13:59:51.198Z,32.00
2022-10-09T14:02:21.728Z,33.30
2022-10-09T14:04:48.377Z,33.50
2022-10-09T14:07:15.019Z,33.80
2022-10-09T14:09:41.612Z,32.80
2022-10-09T14:12:08.403Z,30.60
2022-10-09T14:14:35.170Z,28.10
2022-10-09T14:17:01.732Z,27.30
2022-10-09T14:19:29.193Z,26.20
2022-10-09T14:21:56.928Z,25.00
2022-10-09T14:24:24.817Z,23.50
2022-10-09T14:26:51.975Z,23.00
2022-10-09T14:29:20.247Z,22.60
2022-10-09T14:31:49.353Z,21.60
2022-10-09T14:34:16.081Z,21.00
2022-10-09T14:36:43.594Z,20.00
2022-10-09T14:39:10.272Z,19.00
2022-10-09T14:41:37.906Z,18.20
2022-10-09T14:44:05.421Z,17.70
2022-10-09T14:46:33.279Z,17.20
2022-10-09T14:49:08.640Z,16.80
2022-10-09T14:51:37.179Z,16.60
2022-10-09T14:54:05.611Z,16.60
2022-10-09T14:56:32.470Z,16.20
2022-10-09T14:59:00.306Z,15.90
2022-10-09T15:01:27.438Z,16.10
2022-10-09T15:03:54.113Z,16.10
2022-10-09T15:06:33.435Z,16.10
2022-10-09T15:09:04.687Z,15.80
2022-10-09T15:11:34.288Z,16.00
2022-10-09T15:14:01.195Z,15.90
2022-10-09T15:16:27.877Z,15.90
2022-10-09T15:18:55.815Z,15.80
2022-10-09T15:21:24.096Z,15.80
2022-10-09T15:23:53.010Z,15.70
2022-10-09T15:26:19.618Z,15.70
2022-10-09T15:28:47.348Z,15.50
2022-10-09T15:31:21.441Z,15.40
2022-10-09T15:33:48.960Z,15.30
2022-10-09T15:36:15.642Z,15.20
2022-10-09T15:38:42.383Z,15.30
2022-10-09T15:41:21.407Z,15.20
2022-10-09T15:43:49.434Z,15.00
2022-10-09T15:46:16.335Z,14.90
2022-10-09T15:48:43.296Z,14.70
2022-10-09T15:51:13.344Z,14.00
2022-10-09T15:53:40.931Z,14.80
2022-10-09T15:56:08.824Z,14.70
2022-10-09T15:58:35.422Z,14.60
2022-10-09T16:01:09.402Z,14.80
2022-10-09T16:03:37.266Z,14.80
2022-10-09T16:06:06.398Z,14.50
2022-10-09T16:08:33.713Z,14.50
2022-10-09T16:11:02.736Z,14.40
2022-10-09T16:13:29.921Z,14.30
2022-10-09T16:15:56.572Z,14.20
2022-10-09T16:18:24.461Z,14.10
2022-10-09T16:20:51.393Z,14.00
2022-10-09T16:23:18.550Z,13.90
2022-10-09T16:25:56.939Z,14.00
2022-10-09T16:28:23.932Z,13.80
2022-10-09T16:30:50.594Z,13.60
2022-10-09T16:33:17.424Z,13.50
2022-10-09T16:35:45.598Z,13.50
2022-10-09T16:38:12.303Z,13.40
2022-10-09T16:41:02.689Z,13.30
2022-10-09T16:43:32.382Z,13.30
2022-10-09T16:46:09.074Z,13.20
2022-10-09T16:48:35.802Z,13.30
2022-10-09T16:51:08.036Z,13.10
2022-10-09T16:53:34.841Z,13.10
2022-10-09T16:56:07.405Z,13.20
2022-10-09T16:58:34.073Z,13.30
2022-10-09T17:01:01.191Z,12.90
2022-10-09T17:03:27.959Z,12.90
2022-10-09T17:05:54.896Z,12.80
2022-10-09T17:08:22.617Z,12.70
2022-10-09T17:10:49.263Z,12.70
2022-10-09T17:13:15.887Z,12.40
2022-10-09T17:15:42.934Z,12.60
2022-10-09T17:18:09.616Z,12.60
2022-10-09T17:20:37.102Z,12.50
2022-10-09T17:23:04.291Z,12.80
2022-10-09T17:25:32.575Z,12.50
2022-10-09T17:27:59.228Z,12.00
2022-10-09T17:30:27.202Z,12.60
2022-10-09T17:32:53.795Z,12.40
2022-10-09T17:35:20.485Z,12.50
2022-10-09T17:37:47.067Z,12.60
2022-10-09T17:40:13.731Z,12.70
2022-10-09T17:42:41.074Z,12.30
2022-10-09T17:45:08.970Z,12.30
2022-10-09T17:47:35.677Z,12.20
2022-10-09T17:50:02.877Z,12.20
2022-10-09T17:52:30.126Z,12.10
2022-10-09T17:54:56.875Z,12.30
2022-10-09T17:57:23.804Z,12.10
2022-10-09T17:59:51.453Z,12.10
2022-10-09T18:02:18.268Z,12.30
2022-10-09T18:04:44.858Z,11.60
2022-10-09T18:07:11.496Z,12.00
2022-10-09T18:09:38.969Z,11.90
2022-10-09T18:12:06.324Z,12.00
2022-10-09T18:14:34.236Z,11.80
2022-10-09T18:17:02.154Z,11.60
2022-10-09T18:19:28.772Z,11.90
2022-10-09T18:21:55.705Z,11.70
2022-10-09T18:24:22.710Z,11.70
2022-10-09T18:26:49.433Z,11.80
2022-10-09T18:29:16.246Z,11.90
2022-10-09T18:31:43.179Z,11.70
2022-10-09T18:34:10.971Z,11.60
2022-10-09T18:36:38.573Z,11.50
2022-10-09T18:39:07.374Z,11.40
2022-10-09T18:41:35.842Z,11.50
2022-10-09T18:44:03.938Z,11.80
2022-10-09T18:46:35.814Z,11.40
2022-10-09T18:49:04.965Z,11.50
2022-10-09T18:51:32.639Z,11.30
2022-10-09T18:54:03.507Z,10.80
2022-10-09T18:56:32.992Z,11.50
2022-10-09T18:59:01.522Z,11.20
2022-10-09T19:01:29.671Z,11.10
2022-10-09T19:03:56.368Z,11.10
2022-10-09T19:06:23.111Z,10.40
2022-10-09T19:08:51.824Z,11.00
2022-10-09T19:11:18.838Z,11.20
2022-10-09T19:13:46.052Z,10.50
2022-10-09T19:16:13.041Z,10.90
2022-10-09T19:18:40.282Z,10.80
2022-10-09T19:21:11.399Z,10.80
2022-10-09T19:23:38.044Z,10.80
2022-10-09T19:26:05.861Z,10.70
2022-10-09T19:28:37.093Z,10.70
2022-10-09T19:31:05.179Z,10.60
2022-10-09T19:33:31.904Z,10.60
2022-10-09T19:35:58.625Z,10.70
2022-10-09T19:38:26.260Z,10.30
2022-10-09T19:40:53.603Z,10.50
2022-10-09T19:43:22.841Z,10.90
2022-10-09T19:45:50.125Z,10.60
2022-10-09T19:48:19.697Z,10.50
2022-10-09T19:50:46.606Z,10.30
2022-10-09T19:53:13.692Z,10.50
2022-10-09T19:55:40.321Z,10.50
2022-10-09T19:58:07.023Z,10.50
2022-10-09T20:00:34.345Z,9.90
2022-10-09T20:03:00.950Z,10.40
2022-10-09T20:05:27.778Z,10.20
2022-10-09T20:07:54.535Z,10.40
2022-10-09T20:10:21.173Z,10.40
2022-10-09T20:12:48.146Z,10.40
2022-10-09T20:15:15.045Z,10.30
2022-10-09T20:17:42.452Z,10.30
2022-10-09T20:20:09.870Z,10.30
2022-10-09T20:22:36.511Z,10.10
2022-10-09T20:25:03.758Z,10.10
2022-10-09T20:27:30.712Z,10.20
2022-10-09T20:29:57.300Z,10.20
2022-10-09T20:32:24.770Z,10.10
2022-10-09T20:34:53.263Z,10.40
2022-10-09T20:37:20.757Z,10.10
2022-10-09T20:39:48.453Z,10.10
2022-10-09T20:42:15.198Z,9.90
2022-10-09T20:44:42.098Z,10.10
2022-10-09T20:47:08.873Z,10.10
2022-10-09T20:49:35.664Z,10.20
2022-10-09T20:52:03.029Z,10.10
2022-10-09T20:54:30.038Z,10.20
2022-10-09T20:56:58.205Z,10.50
2022-10-09T20:59:25.259Z,9.70
2022-10-09T21:01:52.202Z,10.00
2022-10-09T21:04:18.830Z,10.00
2022-10-09T21:06:45.570Z,10.40
2022-10-09T21:09:12.839Z,10.00
2022-10-09T21:11:40.883Z,10.00
2022-10-09T21:14:08.921Z,9.90
2022-10-09T21:16:35.504Z,9.70
2022-10-09T21:19:03.760Z,9.90
2022-10-09T21:21:31.533Z,9.90
2022-10-09T21:23:59.100Z,9.90
2022-10-09T21:26:28.581Z,10.00
2022-10-09T21:28:59.297Z,10.00
2022-10-09T21:31:28.837Z,10.10
2022-10-09T21:33:56.248Z,9.90
2022-10-09T21:36:30.017Z,9.80
2022-10-09T21:38:56.706Z,9.80
2022-10-09T21:41:23.920Z,9.80
2022-10-09T21:43:51.816Z,9.90
2022-10-09T21:46:18.498Z,9.80
2022-10-09T21:48:45.204Z,9.80
2022-10-09T21:51:11.883Z,9.80
2022-10-09T21:53:38.584Z,8.90
2022-10-09T21:56:06.660Z,9.80
2022-10-09T21:58:33.353Z,10.20
2022-10-09T22:01:01.641Z,9.70
2022-10-09T22:03:30.750Z,9.70
2022-10-09T22:05:57.790Z,9.50
2022-10-09T22:08:25.212Z,9.80
2022-10-09T22:10:51.865Z,9.60
2022-10-09T22:13:19.331Z,9.60
2022-10-09T22:15:50.755Z,9.70
2022-10-09T22:18:19.714Z,9.40
2022-10-09T22:20:48.744Z,9.70
2022-10-09T22:23:16.211Z,9.60
2022-10-09T22:25:42.901Z,9.80
2022-10-09T22:28:10.288Z,9.60
2022-10-09T22:30:37.040Z,9.90
2022-10-09T22:33:04.103Z,9.60
2022-10-09T22:35:31.405Z,9.50
2022-10-09T22:37:58.064Z,9.50
2022-10-09T22:40:24.704Z,9.80
2022-10-09T22:42:51.617Z,9.40
2022-10-09T22:45:18.847Z,9.30
2022-10-09T22:47:46.732Z,10.10
2022-10-09T22:50:13.854Z,9.30
2022-10-09T22:52:41.404Z,9.20
2022-10-09T22:55:09.050Z,9.30
2022-10-09T22:57:35.711Z,9.20
2022-10-09T23:00:03.294Z,9.10
2022-10-09T23:02:30.024Z,9.10
2022-10-09T23:04:56.606Z,9.10
2022-10-09T23:07:23.388Z,9.20
2022-10-09T23:09:50.776Z,9.00
2022-10-09T23:12:17.336Z,9.00
2022-10-09T23:14:44.142Z,8.90
2022-10-09T23:17:10.953Z,8.90
2022-10-09T23:19:37.677Z,9.00
2022-10-09T23:22:04.372Z,9.00
2022-10-09T23:24:30.964Z,8.90
2022-10-09T23:26:58.237Z,8.40
2022-10-09T23:29:24.902Z,9.30
2022-10-09T23:31:52.561Z,8.90
2022-10-09T23:34:19.262Z,8.90
2022-10-09T23:36:45.862Z,8.90
2022-10-09T23:39:13.022Z,8.90
2022-10-09T23:41:40.081Z,8.90
2022-10-09T23:44:07.520Z,9.10
2022-10-09T23:46:34.903Z,8.90
2022-10-09T23:49:01.648Z,8.90
2022-10-09T23:51:29.008Z,8.80
2022-10-09T23:53:56.343Z,9.00
2022-10-09T23:56:24.697Z,8.90
2022-10-09T23:58:52.163Z,9.50
